sensor_id;sensor_type;location;lat;lon;timestamp;temperature;humidity
33207;DHT22;19565;46.602;11.534;2023-04-12T00:01:42;10.80;62.40
33207;DHT22;19565;46.602;11.534;2023-04-12T00:04:10;10.90;62.40
33207;DHT22;19565;46.602;11.534;2023-04-12T00:06:40;11.00;62.10
33207;DHT22;19565;46.602;11.534;2023-04-12T00:09:08;10.80;62.50
33207;DHT22;19565;46.602;11.534;2023-04-12T00:11:36;10.80;62.80
33207;DHT22;19565;46.602;11.534;2023-04-12T00:14:04;10.60;63.00
33207;DHT22;19565;46.602;11.534;2023-04-12T00:16:32;10.60;63.10
33207;DHT22;19565;46.602;11.534;2023-04-12T00:19:03;10.70;62.90
33207;DHT22;19565;46.602;11.534;2023-04-12T00:21:32;10.70;62.90
33207;DHT22;19565;46.602;11.534;2023-04-12T00:24:00;10.70;62.80
33207;DHT22;19565;46.602;11.534;2023-04-12T00:26:28;10.90;63.00
33207;DHT22;19565;46.602;11.534;2023-04-12T00:28:56;11.00;63.00
33207;DHT22;19565;46.602;11.534;2023-04-12T00:31:24;11.20;63.10
33207;DHT22;19565;46.602;11.534;2023-04-12T00:33:52;11.10;63.00
33207;DHT22;19565;46.602;11.534;2023-04-12T00:36:22;10.90;63.30
33207;DHT22;19565;46.602;11.534;2023-04-12T00:38:50;10.80;63.20
33207;DHT22;19565;46.602;11.534;2023-04-12T00:41:18;10.50;63.50
33207;DHT22;19565;46.602;11.534;2023-04-12T00:43:46;10.60;63.80
33207;DHT22;19565;46.602;11.534;2023-04-12T00:46:16;10.50;63.80
33207;DHT22;19565;46.602;11.534;2023-04-12T00:48:45;10.60;63.90
33207;DHT22;19565;46.602;11.534;2023-04-12T00:51:14;10.70;64.00
33207;DHT22;19565;46.602;11.534;2023-04-12T00:53:45;10.50;64.10
33207;DHT22;19565;46.602;11.534;2023-04-12T00:56:13;10.60;64.00
33207;DHT22;19565;46.602;11.534;2023-04-12T00:58:41;10.60;64.00
33207;DHT22;19565;46.602;11.534;2023-04-12T01:01:09;10.80;63.80
33207;DHT22;19565;46.602;11.534;2023-04-12T01:03:37;11.00;63.70
33207;DHT22;19565;46.602;11.534;2023-04-12T01:06:12;11.10;63.30
33207;DHT22;19565;46.602;11.534;2023-04-12T01:08:52;11.20;63.30
33207;DHT22;19565;46.602;11.534;2023-04-12T01:11:30;11.30;62.90
33207;DHT22;19565;46.602;11.534;2023-04-12T01:14:04;11.30;62.50
33207;DHT22;19565;46.602;11.534;2023-04-12T01:16:36;11.40;62.40
33207;DHT22;19565;46.602;11.534;2023-04-12T01:19:31;11.40;62.40
33207;DHT22;19565;46.602;11.534;2023-04-12T01:22:09;11.30;62.60
33207;DHT22;19565;46.602;11.534;2023-04-12T01:24:50;11.30;63.10
33207;DHT22;19565;46.602;11.534;2023-04-12T01:27:29;10.90;63.80
33207;DHT22;19565;46.602;11.534;2023-04-12T01:30:00;10.60;64.00
33207;DHT22;19565;46.602;11.534;2023-04-12T01:32:30;10.60;64.30
33207;DHT22;19565;46.602;11.534;2023-04-12T01:35:00;10.40;64.40
33207;DHT22;19565;46.602;11.534;2023-04-12T01:37:31;10.50;64.40
33207;DHT22;19565;46.602;11.534;2023-04-12T01:39:59;10.60;64.00
33207;DHT22;19565;46.602;11.534;2023-04-12T01:42:29;10.60;64.00
33207;DHT22;19565;46.602;11.534;2023-04-12T01:44:57;10.70;64.40
33207;DHT22;19565;46.602;11.534;2023-04-12T01:47:25;10.90;65.10
33207;DHT22;19565;46.602;11.534;2023-04-12T01:50:07;11.00;64.00
33207;DHT22;19565;46.602;11.534;2023-04-12T01:52:42;11.20;64.70
33207;DHT22;19565;46.602;11.534;2023-04-12T01:55:13;11.20;63.50
33207;DHT22;19565;46.602;11.534;2023-04-12T01:57:44;11.20;63.50
33207;DHT22;19565;46.602;11.534;2023-04-12T02:00:15;11.00;63.90
33207;DHT22;19565;46.602;11.534;2023-04-12T02:02:43;11.00;63.90
33207;DHT22;19565;46.602;11.534;2023-04-12T02:05:11;11.20;63.80
33207;DHT22;19565;46.602;11.534;2023-04-12T02:07:40;11.30;63.80
33207;DHT22;19565;46.602;11.534;2023-04-12T02:10:12;11.40;63.90
33207;DHT22;19565;46.602;11.534;2023-04-12T02:12:40;11.40;63.80
33207;DHT22;19565;46.602;11.534;2023-04-12T02:15:10;11.40;63.50
33207;DHT22;19565;46.602;11.534;2023-04-12T02:17:38;11.40;63.50
33207;DHT22;19565;46.602;11.534;2023-04-12T02:20:07;11.40;63.60
33207;DHT22;19565;46.602;11.534;2023-04-12T02:22:36;11.40;63.60
33207;DHT22;19565;46.602;11.534;2023-04-12T02:25:05;11.30;63.30
33207;DHT22;19565;46.602;11.534;2023-04-12T02:27:33;11.10;63.60
33207;DHT22;19565;46.602;11.534;2023-04-12T02:30:03;11.00;64.20
33207;DHT22;19565;46.602;11.534;2023-04-12T02:32:33;11.10;64.30
33207;DHT22;19565;46.602;11.534;2023-04-12T02:35:10;11.20;64.70
33207;DHT22;19565;46.602;11.534;2023-04-12T02:37:39;11.20;64.70
33207;DHT22;19565;46.602;11.534;2023-04-12T02:40:10;11.20;66.60
33207;DHT22;19565;46.602;11.534;2023-04-12T02:42:39;11.20;68.00
33207;DHT22;19565;46.602;11.534;2023-04-12T02:45:07;11.20;68.30
33207;DHT22;19565;46.602;11.534;2023-04-12T02:47:36;11.10;67.00
33207;DHT22;19565;46.602;11.534;2023-04-12T02:50:07;11.20;66.00
33207;DHT22;19565;46.602;11.534;2023-04-12T02:52:35;11.10;66.70
33207;DHT22;19565;46.602;11.534;2023-04-12T02:55:04;11.10;66.60
33207;DHT22;19565;46.602;11.534;2023-04-12T02:57:32;11.10;65.50
33207;DHT22;19565;46.602;11.534;2023-04-12T03:00:00;11.00;66.10
33207;DHT22;19565;46.602;11.534;2023-04-12T03:02:33;10.80;65.80
33207;DHT22;19565;46.602;11.534;2023-04-12T03:05:03;10.70;66.00
33207;DHT22;19565;46.602;11.534;2023-04-12T03:07:34;10.60;66.30
33207;DHT22;19565;46.602;11.534;2023-04-12T03:10:03;10.40;66.30
33207;DHT22;19565;46.602;11.534;2023-04-12T03:12:33;10.50;66.60
33207;DHT22;19565;46.602;11.534;2023-04-12T03:15:01;10.50;66.90
33207;DHT22;19565;46.602;11.534;2023-04-12T03:17:29;10.40;67.30
33207;DHT22;19565;46.602;11.534;2023-04-12T03:20:04;10.30;67.50
33207;DHT22;19565;46.602;11.534;2023-04-12T03:22:34;10.40;67.60
33207;DHT22;19565;46.602;11.534;2023-04-12T03:25:03;10.60;67.30
33207;DHT22;19565;46.602;11.534;2023-04-12T03:27:31;10.50;66.30
33207;DHT22;19565;46.602;11.534;2023-04-12T03:29:59;10.50;66.80
33207;DHT22;19565;46.602;11.534;2023-04-12T03:32:27;10.50;66.90
33207;DHT22;19565;46.602;11.534;2023-04-12T03:34:55;10.60;66.90
33207;DHT22;19565;46.602;11.534;2023-04-12T03:37:25;10.60;66.60
33207;DHT22;19565;46.602;11.534;2023-04-12T03:39:53;10.50;66.60
33207;DHT22;19565;46.602;11.534;2023-04-12T03:42:21;10.30;66.90
33207;DHT22;19565;46.602;11.534;2023-04-12T03:44:59;10.30;66.90
33207;DHT22;19565;46.602;11.534;2023-04-12T03:47:27;10.30;67.00
33207;DHT22;19565;46.602;11.534;2023-04-12T03:50:01;10.30;67.70
33207;DHT22;19565;46.602;11.534;2023-04-12T03:52:39;10.30;66.80
33207;DHT22;19565;46.602;11.534;2023-04-12T03:55:08;10.20;66.80
33207;DHT22;19565;46.602;11.534;2023-04-12T03:57:40;10.00;67.70
33207;DHT22;19565;46.602;11.534;2023-04-12T04:00:15;10.10;67.30
33207;DHT22;19565;46.602;11.534;2023-04-12T04:02:43;10.30;67.10
33207;DHT22;19565;46.602;11.534;2023-04-12T04:05:13;10.40;67.00
33207;DHT22;19565;46.602;11.534;2023-04-12T04:07:42;10.60;67.00
33207;DHT22;19565;46.602;11.534;2023-04-12T04:10:12;10.50;66.50
33207;DHT22;19565;46.602;11.534;2023-04-12T04:12:40;10.50;66.60
33207;DHT22;19565;46.602;11.534;2023-04-12T04:15:09;10.40;66.90
33207;DHT22;19565;46.602;11.534;2023-04-12T04:17:38;10.30;67.20
33207;DHT22;19565;46.602;11.534;2023-04-12T04:20:06;10.10;67.70
33207;DHT22;19565;46.602;11.534;2023-04-12T04:22:34;10.00;68.00
33207;DHT22;19565;46.602;11.534;2023-04-12T04:25:06;9.90;68.50
33207;DHT22;19565;46.602;11.534;2023-04-12T04:27:40;9.80;68.80
33207;DHT22;19565;46.602;11.534;2023-04-12T04:30:11;9.70;69.10
33207;DHT22;19565;46.602;11.534;2023-04-12T04:32:40;9.70;69.50
33207;DHT22;19565;46.602;11.534;2023-04-12T04:35:08;9.70;69.30
33207;DHT22;19565;46.602;11.534;2023-04-12T04:37:38;9.80;69.10
33207;DHT22;19565;46.602;11.534;2023-04-12T04:40:08;9.70;69.10
33207;DHT22;19565;46.602;11.534;2023-04-12T04:42:37;9.60;69.40
33207;DHT22;19565;46.602;11.534;2023-04-12T04:45:06;9.60;69.30
33207;DHT22;19565;46.602;11.534;2023-04-12T04:47:39;9.60;69.00
33207;DHT22;19565;46.602;11.534;2023-04-12T04:50:08;9.80;69.10
33207;DHT22;19565;46.602;11.534;2023-04-12T04:52:36;9.70;69.30
33207;DHT22;19565;46.602;11.534;2023-04-12T04:55:06;9.70;69.10
33207;DHT22;19565;46.602;11.534;2023-04-12T04:57:38;9.80;69.20
33207;DHT22;19565;46.602;11.534;2023-04-12T05:00:07;9.90;68.90
33207;DHT22;19565;46.602;11.534;2023-04-12T05:02:37;10.10;68.50
33207;DHT22;19565;46.602;11.534;2023-04-12T05:05:09;10.20;67.80
33207;DHT22;19565;46.602;11.534;2023-04-12T05:07:39;10.10;68.00
33207;DHT22;19565;46.602;11.534;2023-04-12T05:10:09;10.20;68.00
33207;DHT22;19565;46.602;11.534;2023-04-12T05:12:39;10.20;68.00
33207;DHT22;19565;46.602;11.534;2023-04-12T05:15:07;10.20;68.10
33207;DHT22;19565;46.602;11.534;2023-04-12T05:17:39;10.20;67.80
33207;DHT22;19565;46.602;11.534;2023-04-12T05:20:08;10.20;67.70
33207;DHT22;19565;46.602;11.534;2023-04-12T05:22:37;10.00;68.10
33207;DHT22;19565;46.602;11.534;2023-04-12T05:25:06;10.00;68.30
33207;DHT22;19565;46.602;11.534;2023-04-12T05:27:34;10.00;68.00
33207;DHT22;19565;46.602;11.534;2023-04-12T05:30:04;10.00;67.60
33207;DHT22;19565;46.602;11.534;2023-04-12T05:32:33;10.00;67.50
33207;DHT22;19565;46.602;11.534;2023-04-12T05:35:01;10.00;67.30
33207;DHT22;19565;46.602;11.534;2023-04-12T05:37:29;10.00;67.30
33207;DHT22;19565;46.602;11.534;2023-04-12T05:39:57;10.10;67.10
33207;DHT22;19565;46.602;11.534;2023-04-12T05:42:25;10.20;67.00
33207;DHT22;19565;46.602;11.534;2023-04-12T05:44:54;10.20;67.00
33207;DHT22;19565;46.602;11.534;2023-04-12T05:47:23;10.20;66.90
33207;DHT22;19565;46.602;11.534;2023-04-12T05:49:52;10.30;66.80
33207;DHT22;19565;46.602;11.534;2023-04-12T05:52:21;10.40;66.50
33207;DHT22;19565;46.602;11.534;2023-04-12T05:54:48;10.50;66.00
33207;DHT22;19565;46.602;11.534;2023-04-12T05:57:17;10.40;66.00
33207;DHT22;19565;46.602;11.534;2023-04-12T05:59:45;10.50;65.90
33207;DHT22;19565;46.602;11.534;2023-04-12T06:02:13;10.60;65.90
33207;DHT22;19565;46.602;11.534;2023-04-12T06:04:42;10.70;66.00
33207;DHT22;19565;46.602;11.534;2023-04-12T06:07:17;10.60;66.00
33207;DHT22;19565;46.602;11.534;2023-04-12T06:09:45;10.50;66.30
33207;DHT22;19565;46.602;11.534;2023-04-12T06:12:15;10.40;66.50
33207;DHT22;19565;46.602;11.534;2023-04-12T06:14:43;10.30;67.00
33207;DHT22;19565;46.602;11.534;2023-04-12T06:17:12;10.30;67.50
33207;DHT22;19565;46.602;11.534;2023-04-12T06:19:41;10.20;67.30
33207;DHT22;19565;46.602;11.534;2023-04-12T06:22:14;10.30;67.30
33207;DHT22;19565;46.602;11.534;2023-04-12T06:24:42;10.40;67.00
33207;DHT22;19565;46.602;11.534;2023-04-12T06:27:10;10.40;66.60
33207;DHT22;19565;46.602;11.534;2023-04-12T06:29:38;10.40;66.30
33207;DHT22;19565;46.602;11.534;2023-04-12T06:32:06;10.40;66.50
33207;DHT22;19565;46.602;11.534;2023-04-12T06:34:34;10.50;66.50
33207;DHT22;19565;46.602;11.534;2023-04-12T06:37:03;10.60;65.80
33207;DHT22;19565;46.602;11.534;2023-04-12T06:39:31;10.60;65.30
33207;DHT22;19565;46.602;11.534;2023-04-12T06:41:59;10.50;65.30
33207;DHT22;19565;46.602;11.534;2023-04-12T06:44:28;10.50;65.50
33207;DHT22;19565;46.602;11.534;2023-04-12T06:46:56;10.40;65.50
33207;DHT22;19565;46.602;11.534;2023-04-12T06:49:24;10.50;65.60
33207;DHT22;19565;46.602;11.534;2023-04-12T06:51:52;10.70;65.30
33207;DHT22;19565;46.602;11.534;2023-04-12T06:54:22;10.60;65.30
33207;DHT22;19565;46.602;11.534;2023-04-12T06:56:50;10.70;65.30
33207;DHT22;19565;46.602;11.534;2023-04-12T06:59:18;10.80;65.80
33207;DHT22;19565;46.602;11.534;2023-04-12T07:01:46;10.90;65.50
33207;DHT22;19565;46.602;11.534;2023-04-12T07:04:14;11.00;65.20
33207;DHT22;19565;46.602;11.534;2023-04-12T07:06:43;11.10;64.60
33207;DHT22;19565;46.602;11.534;2023-04-12T07:09:11;11.10;64.70
33207;DHT22;19565;46.602;11.534;2023-04-12T07:11:41;11.20;64.80
33207;DHT22;19565;46.602;11.534;2023-04-12T07:14:09;11.30;64.40
33207;DHT22;19565;46.602;11.534;2023-04-12T07:16:37;11.30;64.20
33207;DHT22;19565;46.602;11.534;2023-04-12T07:19:05;11.30;63.80
33207;DHT22;19565;46.602;11.534;2023-04-12T07:21:33;11.40;63.60
33207;DHT22;19565;46.602;11.534;2023-04-12T07:24:02;11.40;63.60
33207;DHT22;19565;46.602;11.534;2023-04-12T07:26:30;11.30;62.90
33207;DHT22;19565;46.602;11.534;2023-04-12T07:28:59;11.20;63.50
33207;DHT22;19565;46.602;11.534;2023-04-12T07:31:27;11.30;63.80
33207;DHT22;19565;46.602;11.534;2023-04-12T07:33:56;11.40;63.80
33207;DHT22;19565;46.602;11.534;2023-04-12T07:36:24;11.30;62.90
33207;DHT22;19565;46.602;11.534;2023-04-12T07:38:53;11.40;63.50
33207;DHT22;19565;46.602;11.534;2023-04-12T07:41:22;11.40;63.80
33207;DHT22;19565;46.602;11.534;2023-04-12T07:43:50;11.50;63.90
33207;DHT22;19565;46.602;11.534;2023-04-12T07:46:20;11.50;62.70
33207;DHT22;19565;46.602;11.534;2023-04-12T07:48:48;11.50;62.40
33207;DHT22;19565;46.602;11.534;2023-04-12T07:51:16;11.50;62.30
33207;DHT22;19565;46.602;11.534;2023-04-12T07:53:44;11.40;62.60
33207;DHT22;19565;46.602;11.534;2023-04-12T07:56:14;11.40;62.30
33207;DHT22;19565;46.602;11.534;2023-04-12T07:58:42;11.20;62.20
33207;DHT22;19565;46.602;11.534;2023-04-12T08:01:10;11.20;62.80
33207;DHT22;19565;46.602;11.534;2023-04-12T08:03:40;11.20;62.90
33207;DHT22;19565;46.602;11.534;2023-04-12T08:06:08;11.20;62.80
33207;DHT22;19565;46.602;11.534;2023-04-12T08:08:37;11.30;62.50
33207;DHT22;19565;46.602;11.534;2023-04-12T08:11:05;11.30;61.90
33207;DHT22;19565;46.602;11.534;2023-04-12T08:13:33;11.20;62.30
33207;DHT22;19565;46.602;11.534;2023-04-12T08:16:02;11.30;62.30
33207;DHT22;19565;46.602;11.534;2023-04-12T08:18:30;11.30;63.30
33207;DHT22;19565;46.602;11.534;2023-04-12T08:20:59;11.30;62.30
33207;DHT22;19565;46.602;11.534;2023-04-12T08:23:27;11.30;62.10
33207;DHT22;19565;46.602;11.534;2023-04-12T08:25:55;11.40;62.30
33207;DHT22;19565;46.602;11.534;2023-04-12T08:28:29;11.40;62.30
33207;DHT22;19565;46.602;11.534;2023-04-12T08:30:57;11.40;62.40
33207;DHT22;19565;46.602;11.534;2023-04-12T08:33:26;11.40;61.50
33207;DHT22;19565;46.602;11.534;2023-04-12T08:35:54;11.30;61.90
33207;DHT22;19565;46.602;11.534;2023-04-12T08:38:23;11.30;62.30
33207;DHT22;19565;46.602;11.534;2023-04-12T08:41:11;11.40;62.00
33207;DHT22;19565;46.602;11.534;2023-04-12T08:43:43;11.50;61.90
33207;DHT22;19565;46.602;11.534;2023-04-12T08:46:12;11.50;62.00
33207;DHT22;19565;46.602;11.534;2023-04-12T08:48:43;11.60;61.80
33207;DHT22;19565;46.602;11.534;2023-04-12T08:51:12;11.50;61.90
33207;DHT22;19565;46.602;11.534;2023-04-12T08:53:43;11.40;62.00
33207;DHT22;19565;46.602;11.534;2023-04-12T08:56:12;11.30;61.80
33207;DHT22;19565;46.602;11.534;2023-04-12T08:58:42;11.30;62.40
33207;DHT22;19565;46.602;11.534;2023-04-12T09:01:13;11.40;62.00
33207;DHT22;19565;46.602;11.534;2023-04-12T09:03:42;11.40;61.80
33207;DHT22;19565;46.602;11.534;2023-04-12T09:06:10;11.50;61.30
33207;DHT22;19565;46.602;11.534;2023-04-12T09:08:51;11.50;61.90
33207;DHT22;19565;46.602;11.534;2023-04-12T09:11:25;11.60;61.80
33207;DHT22;19565;46.602;11.534;2023-04-12T09:13:53;11.70;61.90
33207;DHT22;19565;46.602;11.534;2023-04-12T09:16:35;11.80;61.40
33207;DHT22;19565;46.602;11.534;2023-04-12T09:19:04;11.80;61.40
33207;DHT22;19565;46.602;11.534;2023-04-12T09:21:34;11.80;60.80
33207;DHT22;19565;46.602;11.534;2023-04-12T09:24:05;11.80;60.70
33207;DHT22;19565;46.602;11.534;2023-04-12T09:26:40;11.80;60.60
33207;DHT22;19565;46.602;11.534;2023-04-12T09:29:22;11.90;60.80
33207;DHT22;19565;46.602;11.534;2023-04-12T09:31:55;11.80;60.80
33207;DHT22;19565;46.602;11.534;2023-04-12T09:34:23;11.90;60.80
33207;DHT22;19565;46.602;11.534;2023-04-12T09:36:53;11.90;61.00
33207;DHT22;19565;46.602;11.534;2023-04-12T09:39:31;12.00;61.00
33207;DHT22;19565;46.602;11.534;2023-04-12T09:42:04;12.10;60.70
33207;DHT22;19565;46.602;11.534;2023-04-12T09:44:44;12.10;60.20
33207;DHT22;19565;46.602;11.534;2023-04-12T09:47:12;12.10;60.00
33207;DHT22;19565;46.602;11.534;2023-04-12T09:49:41;12.10;60.30
33207;DHT22;19565;46.602;11.534;2023-04-12T09:52:10;12.20;60.00
33207;DHT22;19565;46.602;11.534;2023-04-12T09:54:42;12.00;60.30
33207;DHT22;19565;46.602;11.534;2023-04-12T09:57:10;12.00;61.10
33207;DHT22;19565;46.602;11.534;2023-04-12T09:59:40;12.00;60.50
33207;DHT22;19565;46.602;11.534;2023-04-12T10:02:13;12.00;60.40
33207;DHT22;19565;46.602;11.534;2023-04-12T10:04:42;12.00;60.90
33207;DHT22;19565;46.602;11.534;2023-04-12T10:07:12;12.10;60.60
33207;DHT22;19565;46.602;11.534;2023-04-12T10:09:43;12.10;60.50
33207;DHT22;19565;46.602;11.534;2023-04-12T10:12:11;12.10;60.30
33207;DHT22;19565;46.602;11.534;2023-04-12T10:14:40;12.10;60.80
33207;DHT22;19565;46.602;11.534;2023-04-12T10:17:09;12.20;60.70
33207;DHT22;19565;46.602;11.534;2023-04-12T10:19:39;12.30;60.70
33207;DHT22;19565;46.602;11.534;2023-04-12T10:22:07;12.30;60.30
33207;DHT22;19565;46.602;11.534;2023-04-12T10:24:37;12.50;60.40
33207;DHT22;19565;46.602;11.534;2023-04-12T10:27:07;12.40;60.10
33207;DHT22;19565;46.602;11.534;2023-04-12T10:29:35;12.40;60.10
33207;DHT22;19565;46.602;11.534;2023-04-12T10:32:19;12.40;60.00
33207;DHT22;19565;46.602;11.534;2023-04-12T10:34:52;12.30;60.40
33207;DHT22;19565;46.602;11.534;2023-04-12T10:37:21;12.40;60.10
33207;DHT22;19565;46.602;11.534;2023-04-12T10:39:52;12.40;60.10
33207;DHT22;19565;46.602;11.534;2023-04-12T10:42:24;12.40;59.70
33207;DHT22;19565;46.602;11.534;2023-04-12T10:44:54;12.50;59.60
33207;DHT22;19565;46.602;11.534;2023-04-12T10:47:54;12.50;59.70
33207;DHT22;19565;46.602;11.534;2023-04-12T10:50:23;12.50;59.70
33207;DHT22;19565;46.602;11.534;2023-04-12T10:53:19;12.60;60.20
33207;DHT22;19565;46.602;11.534;2023-04-12T10:55:48;12.50;60.00
33207;DHT22;19565;46.602;11.534;2023-04-12T10:59:00;12.60;60.00
33207;DHT22;19565;46.602;11.534;2023-04-12T11:01:29;12.60;60.10
33207;DHT22;19565;46.602;11.534;2023-04-12T11:04:17;12.70;60.20
33207;DHT22;19565;46.602;11.534;2023-04-12T11:09:27;12.70;60.10
33207;DHT22;19565;46.602;11.534;2023-04-12T11:11:57;12.70;60.20
33207;DHT22;19565;46.602;11.534;2023-04-12T11:14:35;12.60;60.50
33207;DHT22;19565;46.602;11.534;2023-04-12T11:17:22;12.70;60.70
33207;DHT22;19565;46.602;11.534;2023-04-12T11:19:56;12.70;60.70
33207;DHT22;19565;46.602;11.534;2023-04-12T11:22:27;12.60;60.60
33207;DHT22;19565;46.602;11.534;2023-04-12T11:24:56;12.60;60.70
33207;DHT22;19565;46.602;11.534;2023-04-12T11:27:26;12.60;61.00
33207;DHT22;19565;46.602;11.534;2023-04-12T11:29:57;12.70;61.20
33207;DHT22;19565;46.602;11.534;2023-04-12T11:32:26;12.70;61.20
33207;DHT22;19565;46.602;11.534;2023-04-12T11:34:55;12.80;61.00
33207;DHT22;19565;46.602;11.534;2023-04-12T11:37:24;12.90;60.10
33207;DHT22;19565;46.602;11.534;2023-04-12T11:39:56;12.90;59.70
33207;DHT22;19565;46.602;11.534;2023-04-12T11:42:25;12.90;59.90
33207;DHT22;19565;46.602;11.534;2023-04-12T11:44:56;12.90;60.10
33207;DHT22;19565;46.602;11.534;2023-04-12T11:47:35;13.00;60.10
33207;DHT22;19565;46.602;11.534;2023-04-12T11:50:08;13.10;59.90
33207;DHT22;19565;46.602;11.534;2023-04-12T11:52:37;13.20;59.80
33207;DHT22;19565;46.602;11.534;2023-04-12T11:55:07;13.20;59.60
33207;DHT22;19565;46.602;11.534;2023-04-12T11:57:37;13.10;60.00
33207;DHT22;19565;46.602;11.534;2023-04-12T12:00:08;13.20;59.60
33207;DHT22;19565;46.602;11.534;2023-04-12T12:02:36;13.20;59.70
33207;DHT22;19565;46.602;11.534;2023-04-12T12:05:18;13.20;59.50
33207;DHT22;19565;46.602;11.534;2023-04-12T12:07:48;13.20;59.30
33207;DHT22;19565;46.602;11.534;2023-04-12T12:10:16;13.30;59.40
33207;DHT22;19565;46.602;11.534;2023-04-12T12:13:09;13.40;59.10
33207;DHT22;19565;46.602;11.534;2023-04-12T12:15:38;13.30;59.20
33207;DHT22;19565;46.602;11.534;2023-04-12T12:18:10;13.30;59.40
33207;DHT22;19565;46.602;11.534;2023-04-12T12:20:39;13.30;59.40
33207;DHT22;19565;46.602;11.534;2023-04-12T12:23:08;13.40;59.20
33207;DHT22;19565;46.602;11.534;2023-04-12T12:25:47;13.40;59.40
33207;DHT22;19565;46.602;11.534;2023-04-12T12:28:48;13.50;59.50
33207;DHT22;19565;46.602;11.534;2023-04-12T12:31:20;13.50;60.10
33207;DHT22;19565;46.602;11.534;2023-04-12T12:33:52;13.60;59.30
33207;DHT22;19565;46.602;11.534;2023-04-12T12:36:28;13.70;59.50
33207;DHT22;19565;46.602;11.534;2023-04-12T12:39:03;13.60;59.10
33207;DHT22;19565;46.602;11.534;2023-04-12T12:41:33;13.70;59.30
33207;DHT22;19565;46.602;11.534;2023-04-12T12:44:01;13.70;58.90
33207;DHT22;19565;46.602;11.534;2023-04-12T12:46:31;13.70;59.10
33207;DHT22;19565;46.602;11.534;2023-04-12T12:49:02;13.80;59.30
33207;DHT22;19565;46.602;11.534;2023-04-12T12:51:30;13.80;58.90
33207;DHT22;19565;46.602;11.534;2023-04-12T12:53:58;13.90;59.40
33207;DHT22;19565;46.602;11.534;2023-04-12T12:56:27;13.90;58.60
33207;DHT22;19565;46.602;11.534;2023-04-12T12:58:56;14.00;58.60
33207;DHT22;19565;46.602;11.534;2023-04-12T13:01:24;14.00;58.10
33207;DHT22;19565;46.602;11.534;2023-04-12T13:03:54;14.00;58.10
33207;DHT22;19565;46.602;11.534;2023-04-12T13:06:24;13.90;57.90
33207;DHT22;19565;46.602;11.534;2023-04-12T13:08:53;13.90;57.90
33207;DHT22;19565;46.602;11.534;2023-04-12T13:11:22;14.00;58.20
33207;DHT22;19565;46.602;11.534;2023-04-12T13:13:50;14.20;58.20
33207;DHT22;19565;46.602;11.534;2023-04-12T13:16:18;14.20;55.90
33207;DHT22;19565;46.602;11.534;2023-04-12T13:18:46;14.30;56.30
33207;DHT22;19565;46.602;11.534;2023-04-12T13:21:15;14.40;56.20
33207;DHT22;19565;46.602;11.534;2023-04-12T13:23:43;14.50;55.60
33207;DHT22;19565;46.602;11.534;2023-04-12T13:26:11;14.60;55.70
33207;DHT22;19565;46.602;11.534;2023-04-12T13:28:39;14.60;55.20
33207;DHT22;19565;46.602;11.534;2023-04-12T13:31:07;14.60;55.10
33207;DHT22;19565;46.602;11.534;2023-04-12T13:33:35;14.60;55.30
33207;DHT22;19565;46.602;11.534;2023-04-12T13:36:04;14.70;55.60
33207;DHT22;19565;46.602;11.534;2023-04-12T13:38:34;14.80;55.40
33207;DHT22;19565;46.602;11.534;2023-04-12T13:41:02;14.80;55.30
33207;DHT22;19565;46.602;11.534;2023-04-12T13:43:30;14.80;55.10
33207;DHT22;19565;46.602;11.534;2023-04-12T13:45:58;14.90;55.20
33207;DHT22;19565;46.602;11.534;2023-04-12T13:48:26;14.90;55.30
33207;DHT22;19565;46.602;11.534;2023-04-12T13:50:54;14.90;56.20
33207;DHT22;19565;46.602;11.534;2023-04-12T13:53:22;15.00;56.70
33207;DHT22;19565;46.602;11.534;2023-04-12T13:55:52;15.00;56.20
33207;DHT22;19565;46.602;11.534;2023-04-12T13:58:20;14.90;56.60
33207;DHT22;19565;46.602;11.534;2023-04-12T14:00:48;14.80;56.90
33207;DHT22;19565;46.602;11.534;2023-04-12T14:03:16;14.70;57.50
33207;DHT22;19565;46.602;11.534;2023-04-12T14:05:44;14.60;57.90
33207;DHT22;19565;46.602;11.534;2023-04-12T14:08:12;14.50;58.80
33207;DHT22;19565;46.602;11.534;2023-04-12T14:10:40;14.50;59.30
33207;DHT22;19565;46.602;11.534;2023-04-12T14:13:09;14.50;60.30
33207;DHT22;19565;46.602;11.534;2023-04-12T14:15:37;14.40;61.00
33207;DHT22;19565;46.602;11.534;2023-04-12T14:18:05;14.40;61.40
33207;DHT22;19565;46.602;11.534;2023-04-12T14:20:34;14.40;61.40
33207;DHT22;19565;46.602;11.534;2023-04-12T14:23:02;14.40;61.70
33207;DHT22;19565;46.602;11.534;2023-04-12T14:25:34;14.40;62.30
33207;DHT22;19565;46.602;11.534;2023-04-12T14:28:02;14.40;62.30
33207;DHT22;19565;46.602;11.534;2023-04-12T14:30:32;14.40;62.50
33207;DHT22;19565;46.602;11.534;2023-04-12T14:33:00;14.40;62.70
33207;DHT22;19565;46.602;11.534;2023-04-12T14:35:28;14.40;63.00
33207;DHT22;19565;46.602;11.534;2023-04-12T14:37:56;14.40;63.00
33207;DHT22;19565;46.602;11.534;2023-04-12T14:40:24;14.40;63.40
33207;DHT22;19565;46.602;11.534;2023-04-12T14:42:52;14.30;63.50
33207;DHT22;19565;46.602;11.534;2023-04-12T14:45:20;14.30;63.70
33207;DHT22;19565;46.602;11.534;2023-04-12T14:47:49;14.30;64.20
33207;DHT22;19565;46.602;11.534;2023-04-12T14:50:17;14.30;64.50
33207;DHT22;19565;46.602;11.534;2023-04-12T14:52:45;14.40;64.30
33207;DHT22;19565;46.602;11.534;2023-04-12T14:55:14;14.40;64.30
33207;DHT22;19565;46.602;11.534;2023-04-12T14:57:43;14.50;64.60
33207;DHT22;19565;46.602;11.534;2023-04-12T15:00:12;14.40;64.70
33207;DHT22;19565;46.602;11.534;2023-04-12T15:02:42;14.40;64.70
33207;DHT22;19565;46.602;11.534;2023-04-12T15:05:13;14.40;64.70
33207;DHT22;19565;46.602;11.534;2023-04-12T15:07:41;14.40;65.20
33207;DHT22;19565;46.602;11.534;2023-04-12T15:10:10;14.40;65.20
33207;DHT22;19565;46.602;11.534;2023-04-12T15:12:39;14.40;65.30
33207;DHT22;19565;46.602;11.534;2023-04-12T15:15:09;14.40;65.30
33207;DHT22;19565;46.602;11.534;2023-04-12T15:17:37;14.40;65.70
33207;DHT22;19565;46.602;11.534;2023-04-12T15:20:08;14.30;65.80
33207;DHT22;19565;46.602;11.534;2023-04-12T15:22:40;14.30;66.10
33207;DHT22;19565;46.602;11.534;2023-04-12T15:25:09;14.30;66.20
33207;DHT22;19565;46.602;11.534;2023-04-12T15:27:37;14.30;66.30
33207;DHT22;19565;46.602;11.534;2023-04-12T15:30:06;14.30;66.20
33207;DHT22;19565;46.602;11.534;2023-04-12T15:32:36;14.30;66.40
33207;DHT22;19565;46.602;11.534;2023-04-12T15:35:08;14.40;66.00
33207;DHT22;19565;46.602;11.534;2023-04-12T15:37:41;14.40;66.00
33207;DHT22;19565;46.602;11.534;2023-04-12T15:40:10;14.40;66.10